createdAt,value
2023-03-26T00:01:59.983Z,5.33
2023-03-26T00:05:12.078Z,4.67
2023-03-26T00:08:12.082Z,2.27
2023-03-26T00:11:39.050Z,3.45
2023-03-26T00:14:39.037Z,5.57
2023-03-26T00:17:54.135Z,3.75
2023-03-26T00:20:54.131Z,5.90
2023-03-26T00:24:19.108Z,3.53
2023-03-26T00:27:33.134Z,4.10
2023-03-26T00:30:47.113Z,2.00
2023-03-26T00:33:59.158Z,3.35
2023-03-26T00:37:11.121Z,2.20
2023-03-26T00:40:11.148Z,2.53
2023-03-26T00:43:38.113Z,2.67
2023-03-26T00:47:05.185Z,3.03
2023-03-26T00:50:18.101Z,3.07
2023-03-26T00:53:33.280Z,2.30
2023-03-26T00:56:45.368Z,2.05
2023-03-26T01:00:02.238Z,5.70
2023-03-26T01:03:28.385Z,1.27
2023-03-26T01:06:40.222Z,3.97
2023-03-26T01:10:04.220Z,0.80
2023-03-26T01:13:04.285Z,3.33
2023-03-26T01:16:31.199Z,3.60
2023-03-26T01:19:55.293Z,2.03
2023-03-26T01:23:19.211Z,3.30
2023-03-26T01:26:33.206Z,1.77
2023-03-26T01:29:58.293Z,3.80
2023-03-26T01:33:18.394Z,2.65
2023-03-26T01:36:43.262Z,1.55
2023-03-26T01:39:55.330Z,3.30
2023-03-26T01:43:21.379Z,2.73
2023-03-26T01:46:33.418Z,2.17
2023-03-26T01:49:48.341Z,2.67
2023-03-26T01:52:48.377Z,2.60
2023-03-26T01:56:13.338Z,2.63
2023-03-26T01:59:43.380Z,1.70
2023-03-26T02:03:09.426Z,2.20
2023-03-26T02:06:35.434Z,1.77
2023-03-26T02:09:47.433Z,3.00
2023-03-26T02:13:11.425Z,3.15
2023-03-26T02:16:38.474Z,1.40
2023-03-26T02:20:02.453Z,1.70
2023-03-26T02:23:27.488Z,2.40
2023-03-26T02:26:39.515Z,3.17
2023-03-26T02:30:04.477Z,3.27
2023-03-26T02:33:33.577Z,1.05
2023-03-26T02:36:46.543Z,1.83
2023-03-26T02:39:58.522Z,1.53
2023-03-26T02:43:10.468Z,1.20
2023-03-26T02:46:34.562Z,1.87
2023-03-26T02:50:04.516Z,1.47
2023-03-26T02:53:21.785Z,2.20
2023-03-26T02:56:34.605Z,0.53
2023-03-26T02:59:46.592Z,1.85
2023-03-26T03:03:00.612Z,0.87
2023-03-26T03:06:32.544Z,4.27
2023-03-26T03:09:48.596Z,1.77
2023-03-26T03:13:14.611Z,0.83
2023-03-26T03:16:44.613Z,1.40
2023-03-26T03:20:04.651Z,1.23
2023-03-26T03:23:31.685Z,0.80
2023-03-26T03:26:47.895Z,2.23
2023-03-26T03:30:01.668Z,0.70
2023-03-26T03:33:29.710Z,0.75
2023-03-26T03:36:42.723Z,0.95
2023-03-26T03:40:08.654Z,1.33
2023-03-26T03:43:32.712Z,1.13
2023-03-26T03:46:56.684Z,1.20
2023-03-26T03:50:12.706Z,2.00
2023-03-26T03:53:26.769Z,1.30
2023-03-26T03:56:51.748Z,0.80
2023-03-26T04:00:05.677Z,1.10
2023-03-26T04:03:06.842Z,1.33
2023-03-26T04:06:31.731Z,1.77
2023-03-26T04:09:43.780Z,3.20
2023-03-26T04:13:09.788Z,1.80
2023-03-26T04:16:33.879Z,3.70
2023-03-26T04:19:58.778Z,4.43
2023-03-26T04:23:23.806Z,0.80
2023-03-26T04:26:37.794Z,5.13
2023-03-26T04:30:03.817Z,1.23
2023-03-26T04:33:28.926Z,1.30
2023-03-26T04:36:52.821Z,3.97
2023-03-26T04:40:18.906Z,0.50
2023-03-26T04:43:32.012Z,1.57
2023-03-26T04:46:58.932Z,1.37
2023-03-26T04:50:11.905Z,2.77
2023-03-26T04:53:36.931Z,1.17
2023-03-26T04:57:04.019Z,1.53
2023-03-26T05:00:28.936Z,3.60
2023-03-26T05:03:42.916Z,1.67
2023-03-26T05:09:51.901Z,1.80
2023-03-26T05:13:04.104Z,3.23
2023-03-26T05:16:18.020Z,2.03
2023-03-26T05:19:43.995Z,2.50
2023-03-26T05:23:08.056Z,2.13
2023-03-26T05:26:34.019Z,2.33
2023-03-26T05:29:46.101Z,1.30
2023-03-26T05:33:11.077Z,1.60
2023-03-26T05:36:37.007Z,1.37
2023-03-26T05:39:50.095Z,0.90
2023-03-26T05:43:02.044Z,1.60
2023-03-26T05:46:15.098Z,2.73
2023-03-26T05:49:27.118Z,1.00
2023-03-26T05:52:54.160Z,1.93
2023-03-26T05:59:10.098Z,0.80
2023-03-26T06:02:25.149Z,1.43
2023-03-26T06:05:39.137Z,1.80
2023-03-26T06:09:05.127Z,1.00
2023-03-26T06:12:19.213Z,0.70
2023-03-26T06:15:31.234Z,1.40
2023-03-26T06:18:56.798Z,1.00
2023-03-26T06:22:08.196Z,0.90
2023-03-26T06:25:35.307Z,0.87
2023-03-26T06:28:48.213Z,1.30
2023-03-26T06:32:12.499Z,2.90
2023-03-26T06:35:19.222Z,3.20
2023-03-26T06:38:38.281Z,2.30
2023-03-26T06:42:08.250Z,1.23
2023-03-26T06:45:34.321Z,1.80
2023-03-26T06:48:47.343Z,2.27
2023-03-26T06:52:00.276Z,1.33
2023-03-26T06:58:23.286Z,1.37
2023-03-26T07:01:40.323Z,4.33
2023-03-26T07:04:59.349Z,1.33
2023-03-26T07:08:25.106Z,5.17
2023-03-26T07:11:42.378Z,0.90
2023-03-26T07:18:12.370Z,1.20
2023-03-26T07:21:29.391Z,4.17
2023-03-26T07:24:42.428Z,3.67
2023-03-26T07:28:09.338Z,6.17
2023-03-26T07:31:39.389Z,10.20
2023-03-26T07:35:08.382Z,5.57
2023-03-26T07:38:37.406Z,7.03
2023-03-26T07:42:03.438Z,3.60
2023-03-26T07:45:28.485Z,12.70
2023-03-26T07:48:54.384Z,3.03
2023-03-26T07:52:20.460Z,12.17
2023-03-26T07:59:01.493Z,12.00
2023-03-26T08:02:37.607Z,4.00
2023-03-26T08:06:02.469Z,2.60
2023-03-26T08:09:29.510Z,8.20
2023-03-26T08:12:55.481Z,3.23
2023-03-26T08:16:08.579Z,3.20
2023-03-26T08:19:34.541Z,17.10
2023-03-26T08:22:46.542Z,7.50
2023-03-26T08:26:13.539Z,6.40
2023-03-26T08:29:26.646Z,8.30
2023-03-26T08:32:50.552Z,7.07
2023-03-26T08:36:03.629Z,9.30
2023-03-26T08:39:17.585Z,10.00
2023-03-26T08:42:35.625Z,12.60
2023-03-26T08:46:03.593Z,6.00
2023-03-26T08:49:27.251Z,6.13
2023-03-26T08:52:59.601Z,8.80
2023-03-26T08:56:25.623Z,10.10
2023-03-26T09:00:04.644Z,11.67
2023-03-26T09:03:22.651Z,10.37
2023-03-26T09:06:43.705Z,4.60
2023-03-26T09:10:04.671Z,8.57
2023-03-26T09:13:32.691Z,9.87
2023-03-26T09:16:53.785Z,8.60
2023-03-26T09:20:29.767Z,9.25
2023-03-26T09:24:04.789Z,6.85
2023-03-26T09:27:39.815Z,6.53
2023-03-26T09:30:57.774Z,7.77
2023-03-26T09:34:31.853Z,4.20
2023-03-26T09:37:58.845Z,11.75
2023-03-26T09:41:23.864Z,6.80
2023-03-26T09:44:41.881Z,7.33
2023-03-26T09:48:21.805Z,6.40
2023-03-26T09:51:36.838Z,13.83
2023-03-26T09:55:05.918Z,10.60
2023-03-26T09:58:21.876Z,15.10
2023-03-26T10:01:45.881Z,10.93
2023-03-26T10:05:13.915Z,6.50
2023-03-26T10:08:34.834Z,9.13
2023-03-26T10:12:03.926Z,6.03
2023-03-26T10:15:17.988Z,12.23
2023-03-26T10:18:41.921Z,7.55
2023-03-26T10:21:57.920Z,10.43
2023-03-26T10:25:35.945Z,11.63
2023-03-26T10:29:22.947Z,10.97
2023-03-26T10:32:49.058Z,15.80
2023-03-26T10:36:09.963Z,22.30
2023-03-26T10:39:39.799Z,4.30
2023-03-26T10:42:56.953Z,9.70
2023-03-26T10:46:32.988Z,7.17
2023-03-26T10:49:49.032Z,7.55
2023-03-26T10:53:14.098Z,4.40
2023-03-26T10:56:35.077Z,11.17
2023-03-26T10:59:47.098Z,12.33
2023-03-26T11:03:02.132Z,10.50
2023-03-26T11:06:29.064Z,7.97
2023-03-26T11:09:54.138Z,5.75
2023-03-26T11:13:19.060Z,7.60
2023-03-26T11:16:31.038Z,8.03
2023-03-26T11:19:57.073Z,5.30
2023-03-26T11:23:15.090Z,6.35
2023-03-26T11:26:39.534Z,5.50
2023-03-26T11:29:53.204Z,7.95
2023-03-26T11:33:19.128Z,7.80
2023-03-26T11:36:33.121Z,6.67
2023-03-26T11:39:58.176Z,8.43
2023-03-26T11:43:10.199Z,4.87
2023-03-26T11:46:38.183Z,6.55
2023-03-26T11:49:50.174Z,8.43
2023-03-26T11:53:17.199Z,4.50
2023-03-26T11:56:29.242Z,14.43
2023-03-26T11:59:57.589Z,7.70
2023-03-26T12:03:12.431Z,10.20
2023-03-26T12:06:40.260Z,12.67
2023-03-26T12:09:53.295Z,7.97
2023-03-26T12:13:17.251Z,8.43
2023-03-26T12:16:38.319Z,5.90
2023-03-26T12:20:06.365Z,4.60
2023-03-26T12:23:24.325Z,5.07
2023-03-26T12:26:58.315Z,6.50
2023-03-26T12:30:10.349Z,7.05
2023-03-26T12:33:35.430Z,5.70
2023-03-26T12:36:47.364Z,5.40
2023-03-26T12:40:08.930Z,7.45
2023-03-26T12:44:52.752Z,8.90
2023-03-26T12:47:56.321Z,7.40
2023-03-26T12:50:03.356Z,9.90
2023-03-26T12:53:43.310Z,6.65
2023-03-26T12:57:11.324Z,7.37
2023-03-26T13:00:26.361Z,7.47
2023-03-26T13:03:44.428Z,5.43
2023-03-26T13:07:08.465Z,9.53
2023-03-26T13:10:22.405Z,4.63
2023-03-26T13:13:52.411Z,5.20
2023-03-26T13:17:06.501Z,7.40
2023-03-26T13:20:30.417Z,8.53
2023-03-26T13:23:45.521Z,9.43
2023-03-26T13:27:12.480Z,5.60
2023-03-26T13:30:24.650Z,5.30
2023-03-26T13:33:52.576Z,9.00
2023-03-26T13:37:06.578Z,8.30
2023-03-26T13:40:35.565Z,6.93
2023-03-26T13:43:49.576Z,6.53
2023-03-26T13:47:14.617Z,3.10
2023-03-26T13:50:28.501Z,4.60
2023-03-26T13:53:52.572Z,4.67
2023-03-26T13:57:04.593Z,5.85
2023-03-26T14:00:29.592Z,7.80
2023-03-26T14:03:55.634Z,4.93
2023-03-26T14:07:10.604Z,5.30
2023-03-26T14:10:34.630Z,7.27
2023-03-26T14:13:46.743Z,6.35
2023-03-26T14:17:11.658Z,6.20
2023-03-26T14:20:34.721Z,5.20
2023-03-26T14:24:18.670Z,6.00
2023-03-26T14:27:34.771Z,7.63
2023-03-26T14:31:05.788Z,7.60
2023-03-26T14:34:39.762Z,7.00
2023-03-26T14:38:15.979Z,4.50
2023-03-26T14:41:32.712Z,4.50
2023-03-26T14:45:03.756Z,6.07
2023-03-26T14:48:16.722Z,6.05
2023-03-26T14:51:43.758Z,8.70
2023-03-26T14:54:55.746Z,5.63
2023-03-26T14:58:28.791Z,6.73
2023-03-26T15:01:47.832Z,5.07
2023-03-26T15:05:21.758Z,6.27
2023-03-26T15:08:40.877Z,7.60
2023-03-26T15:12:12.973Z,8.53
2023-03-26T15:15:26.843Z,6.10
2023-03-26T15:18:56.865Z,7.03
2023-03-26T15:22:27.876Z,6.13
2023-03-26T15:25:58.828Z,9.23
2023-03-26T15:29:32.833Z,6.25
2023-03-26T15:33:07.000Z,5.10
2023-03-26T15:36:24.917Z,5.60
2023-03-26T15:40:01.407Z,8.93
2023-03-26T15:43:09.951Z,11.53
2023-03-26T15:46:44.976Z,7.17
2023-03-26T15:50:00.969Z,3.55
2023-03-26T15:53:33.998Z,4.65
2023-03-26T15:56:49.908Z,2.55
2023-03-26T16:00:29.056Z,5.00
2023-03-26T16:03:54.995Z,4.57
2023-03-26T16:07:12.983Z,6.00
2023-03-26T16:10:40.971Z,4.73
2023-03-26T16:13:57.956Z,6.15
2023-03-26T16:17:22.108Z,4.20
2023-03-26T16:20:41.057Z,6.17
2023-03-26T16:24:17.876Z,8.20
2023-03-26T16:27:43.040Z,4.00
2023-03-26T16:31:10.679Z,6.80
2023-03-26T16:34:21.072Z,10.60
2023-03-26T16:38:08.051Z,6.30
2023-03-26T16:41:09.115Z,4.43
2023-03-26T16:44:36.150Z,4.93
2023-03-26T16:47:48.120Z,3.77
2023-03-26T16:51:18.135Z,6.90
2023-03-26T16:54:33.145Z,6.87
2023-03-26T16:58:00.132Z,2.70
2023-03-26T17:01:13.145Z,6.37
2023-03-26T17:04:38.095Z,8.50
2023-03-26T17:07:50.192Z,7.23
2023-03-26T17:11:20.166Z,8.50
2023-03-26T17:14:33.161Z,2.75
2023-03-26T17:18:00.325Z,3.80
2023-03-26T17:21:15.326Z,7.43
2023-03-26T17:24:40.242Z,6.37
2023-03-26T17:28:11.210Z,4.80
2023-03-26T17:31:39.241Z,3.47
2023-03-26T17:35:04.299Z,6.37
2023-03-26T17:38:37.224Z,4.73
2023-03-26T17:41:56.298Z,6.53
2023-03-26T17:45:30.329Z,4.90
2023-03-26T17:48:42.264Z,9.25
2023-03-26T17:52:11.278Z,8.20
2023-03-26T17:55:30.350Z,5.10
2023-03-26T17:58:55.310Z,5.57
2023-03-26T18:02:09.459Z,4.35
2023-03-26T18:05:34.393Z,4.63
2023-03-26T18:08:52.415Z,4.93
2023-03-26T18:12:23.449Z,5.97
2023-03-26T18:15:38.392Z,4.30
2023-03-26T18:19:05.465Z,4.60
2023-03-26T18:22:20.527Z,5.10
2023-03-26T18:25:36.428Z,7.60
2023-03-26T18:28:55.442Z,7.80
2023-03-26T18:32:19.386Z,2.47
2023-03-26T18:38:36.342Z,5.15
2023-03-26T18:41:45.602Z,3.33
2023-03-26T18:47:52.552Z,4.30
2023-03-26T18:51:17.456Z,2.63
2023-03-26T18:54:31.577Z,3.50
2023-03-26T18:57:55.467Z,10.40
2023-03-26T19:01:14.103Z,3.87
2023-03-26T19:04:32.570Z,5.10
2023-03-26T19:07:47.610Z,4.47
2023-03-26T19:11:20.530Z,8.63
2023-03-26T19:14:41.682Z,3.53
2023-03-26T19:18:11.589Z,3.30
2023-03-26T19:21:23.661Z,3.45
2023-03-26T19:24:47.603Z,7.95
2023-03-26T19:28:02.684Z,7.93
2023-03-26T19:31:31.702Z,7.33
2023-03-26T19:34:46.608Z,8.80
2023-03-26T19:38:13.673Z,4.13
2023-03-26T19:41:28.655Z,6.97
2023-03-26T19:44:54.651Z,4.10
2023-03-26T19:48:15.358Z,6.10
2023-03-26T19:51:39.715Z,3.20
2023-03-26T19:54:40.728Z,6.23
2023-03-26T19:57:53.692Z,3.73
2023-03-26T20:01:08.735Z,4.50
2023-03-26T20:04:35.753Z,5.00
2023-03-26T20:07:47.700Z,5.80
2023-03-26T20:11:00.736Z,6.63
2023-03-26T20:16:28.359Z,4.10
2023-03-26T20:19:41.313Z,2.80
2023-03-26T20:22:42.385Z,4.50
2023-03-26T20:26:11.385Z,3.53
2023-03-26T20:29:11.397Z,2.40
2023-03-26T20:32:41.986Z,2.97
2023-03-26T20:35:53.516Z,2.70
2023-03-26T20:39:06.507Z,6.97
2023-03-26T20:42:18.393Z,1.80
2023-03-26T20:45:43.409Z,3.50
2023-03-26T20:48:57.409Z,2.03
2023-03-26T20:52:09.394Z,3.13
2023-03-26T20:55:09.426Z,2.57
2023-03-26T20:58:36.484Z,4.80
2023-03-26T21:01:36.450Z,3.60
2023-03-26T21:05:02.490Z,5.30
2023-03-26T21:08:15.557Z,5.77
2023-03-26T21:11:42.542Z,4.93
2023-03-26T21:14:55.816Z,4.97
2023-03-26T21:18:19.504Z,3.33
2023-03-26T21:21:39.441Z,2.27
2023-03-26T21:25:11.504Z,4.63
2023-03-26T21:28:29.143Z,4.10
2023-03-26T21:31:39.601Z,4.73
2023-03-26T21:34:47.885Z,2.95
2023-03-26T21:38:06.677Z,6.00
2023-03-26T21:41:18.528Z,3.90
2023-03-26T21:44:32.626Z,3.40
2023-03-26T21:47:33.592Z,4.40
2023-03-26T21:50:47.596Z,3.40
2023-03-26T21:54:04.654Z,3.27
2023-03-26T21:57:36.673Z,2.10
2023-03-26T22:00:48.592Z,7.93
2023-03-26T22:04:15.718Z,1.43
2023-03-26T22:07:27.720Z,3.17
2023-03-26T22:10:54.902Z,3.30
2023-03-26T22:14:09.704Z,6.80
2023-03-26T22:17:21.656Z,3.30
2023-03-26T22:20:33.692Z,2.57
2023-03-26T22:23:46.676Z,6.23
2023-03-26T22:27:00.757Z,3.23
2023-03-26T22:30:13.788Z,1.30
2023-03-26T22:33:16.673Z,4.50
2023-03-26T22:36:31.748Z,3.20
2023-03-26T22:39:31.793Z,3.20
2023-03-26T22:42:57.773Z,2.17
2023-03-26T22:46:11.746Z,5.30
2023-03-26T22:49:23.776Z,4.10
2023-03-26T22:52:23.775Z,3.93
2023-03-26T22:55:36.825Z,1.90
2023-03-26T22:58:50.820Z,1.60
2023-03-26T23:02:14.793Z,3.20
2023-03-26T23:05:14.898Z,1.37
2023-03-26T23:08:26.828Z,3.47
2023-03-26T23:11:38.863Z,2.10
2023-03-26T23:15:05.952Z,4.20
2023-03-26T23:18:22.852Z,1.73
2023-03-26T23:21:35.898Z,0.70
2023-03-26T23:24:35.849Z,1.87
2023-03-26T23:27:47.914Z,2.50
2023-03-26T23:31:01.912Z,2.80
2023-03-26T23:34:13.947Z,2.55
2023-03-26T23:37:13.993Z,4.57
2023-03-26T23:40:26.942Z,2.97
2023-03-26T23:43:38.956Z,2.90
2023-03-26T23:47:07.980Z,1.23
2023-03-26T23:50:10.987Z,1.05
2023-03-26T23:53:23.929Z,1.33
2023-03-26T23:56:23.998Z,2.17
2023-03-26T23:59:51.553Z,3.53
